Time;durP1;ratioP1;P1;durP2;ratioP2;P2;SDS_P1;SDS_P2;PMS_P1;PMS_P2;Temp;Humidity;BMP_temperature;BMP_pressure;BME280_temperature;BME280_humidity;BME280_pressure;Samples;Min_cycle;Max_cycle;Signal;HPM_P1;HPM_P2
2023/04/15 00:01:25;;;;;;;0.70;0.70;;;3.10;99.90;;;;;;5034318;28;20204;-82
2023/04/15 00:03:53;;;;;;;0.75;0.75;;;3.20;99.90;;;;;;5031227;28;20401;-82
2023/04/15 00:06:22;;;;;;;0.50;0.50;;;3.20;99.90;;;;;;5032753;28;20597;-82
2023/04/15 00:08:48;;;;;;;0.65;0.65;;;3.20;99.90;;;;;;5032794;28;20229;-82
2023/04/15 00:11:14;;;;;;;0.70;0.70;;;3.20;99.90;;;;;;5015138;28;20205;-82
2023/04/15 00:13:40;;;;;;;0.60;0.60;;;3.30;99.90;;;;;;5030426;28;20665;-81
2023/04/15 00:16:07;;;;;;;0.63;0.63;;;3.20;99.90;;;;;;5032542;28;20202;-82
2023/04/15 00:18:33;;;;;;;0.70;0.70;;;3.30;99.90;;;;;;5014851;28;20194;-82
2023/04/15 00:20:59;;;;;;;0.60;0.60;;;3.30;99.90;;;;;;5015100;28;20581;-82
2023/04/15 00:23:25;;;;;;;0.60;0.60;;;3.20;99.90;;;;;;5032456;28;20192;-82
2023/04/15 00:25:51;;;;;;;0.70;0.70;;;3.30;99.90;;;;;;5032627;28;20281;-82
2023/04/15 00:28:17;;;;;;;0.60;0.60;;;3.30;99.90;;;;;;5051078;28;20205;-82
2023/04/15 00:30:43;;;;;;;0.70;0.70;;;3.30;99.90;;;;;;5034491;28;20198;-82
2023/04/15 00:33:09;;;;;;;0.70;0.70;;;3.30;99.90;;;;;;5052326;28;20203;-83
2023/04/15 00:35:36;;;;;;;0.70;0.70;;;3.30;99.90;;;;;;5052208;28;20259;-83
2023/04/15 00:38:06;;;;;;;0.95;0.85;;;3.30;99.90;;;;;;5034536;28;20197;-84
2023/04/15 00:40:33;;;;;;;4.97;2.05;;;3.20;99.90;;;;;;5052120;28;20200;-83
2023/04/15 00:42:59;;;;;;;0.60;0.60;;;3.30;99.90;;;;;;5034540;28;20201;-82
2023/04/15 00:45:26;;;;;;;0.70;0.70;;;3.30;99.90;;;;;;5052178;28;20188;-82
2023/04/15 00:47:53;;;;;;;0.70;0.70;;;3.30;99.90;;;;;;5034313;28;20201;-83
2023/04/15 00:50:21;;;;;;;0.60;0.60;;;3.40;99.90;;;;;;5034443;28;20201;-81
2023/04/15 00:52:47;;;;;;;0.60;0.60;;;3.30;99.90;;;;;;5052140;28;20194;-82
2023/04/15 00:55:14;;;;;;;0.65;0.65;;;3.30;99.90;;;;;;5034246;28;20291;-83
2023/04/15 00:57:40;;;;;;;0.52;0.52;;;3.30;99.90;;;;;;5033734;28;20275;-83
2023/04/15 01:00:10;;;;;;;0.43;0.43;;;3.40;99.90;;;;;;5052267;28;20688;-82
2023/04/15 01:02:36;;;;;;;0.68;0.68;;;3.30;99.90;;;;;;5033548;28;20221;-82
2023/04/15 01:05:04;;;;;;;6.90;1.27;;;3.40;99.90;;;;;;5059145;22;20313;-67
2023/04/15 01:07:30;;;;;;;0.63;0.63;;;3.30;99.90;;;;;;5052322;28;20311;-66
2023/04/15 01:09:57;;;;;;;0.77;0.77;;;3.30;99.90;;;;;;5052502;28;20194;-66
2023/04/15 01:12:25;;;;;;;4.88;2.35;;;3.30;99.90;;;;;;5051945;28;20197;-67
2023/04/15 01:14:51;;;;;;;0.60;0.60;;;3.30;99.90;;;;;;5052245;28;20688;-67
2023/04/15 01:17:17;;;;;;;0.60;0.60;;;3.30;99.90;;;;;;5052327;28;20540;-67
2023/04/15 01:19:43;;;;;;;0.70;0.70;;;3.30;99.90;;;;;;5052048;28;20580;-67
2023/04/15 01:22:09;;;;;;;0.80;0.80;;;3.30;99.90;;;;;;5051056;28;20304;-68
2023/04/15 01:24:38;;;;;;;0.50;0.50;;;3.40;99.90;;;;;;5051830;28;20193;-67
2023/04/15 01:27:04;;;;;;;0.70;0.70;;;3.40;99.90;;;;;;5056047;28;20201;-68
2023/04/15 01:29:35;;;;;;;0.60;0.60;;;3.40;99.90;;;;;;5055810;28;20691;-69
2023/04/15 01:32:01;;;;;;;0.65;0.65;;;3.40;99.90;;;;;;5055009;28;20221;-68
2023/04/15 01:34:27;;;;;;;0.63;0.63;;;3.40;99.90;;;;;;5056199;28;20229;-68
2023/04/15 01:36:52;;;;;;;0.70;0.70;;;3.40;99.90;;;;;;5055127;28;20263;-67
2023/04/15 01:39:21;;;;;;;0.70;0.70;;;3.40;99.90;;;;;;5054275;28;20201;-68
2023/04/15 01:41:53;;;;;;;0.63;0.63;;;3.40;99.90;;;;;;5056044;28;20651;-67
2023/04/15 01:44:19;;;;;;;1.23;1.13;;;3.40;99.90;;;;;;5054517;28;20255;-68
2023/04/15 01:46:45;;;;;;;0.93;0.93;;;3.40;99.90;;;;;;5056105;28;20190;-66
2023/04/15 01:49:11;;;;;;;0.60;0.60;;;3.40;99.90;;;;;;5055778;28;20196;-67
2023/04/15 01:51:37;;;;;;;0.70;0.70;;;3.40;99.90;;;;;;5055289;28;20193;-67
2023/04/15 01:54:02;;;;;;;1.38;1.25;;;3.40;99.90;;;;;;5053823;28;20193;-67
2023/04/15 01:56:28;;;;;;;0.70;0.70;;;3.40;99.90;;;;;;5055209;28;20764;-67
2023/04/15 01:58:54;;;;;;;0.70;0.70;;;3.40;99.90;;;;;;5054292;28;20691;-68
2023/04/15 02:01:20;;;;;;;0.63;0.63;;;3.40;99.90;;;;;;5054799;28;20229;-67
2023/04/15 02:03:46;;;;;;;0.60;0.60;;;3.40;99.90;;;;;;5054712;28;20247;-68
2023/04/15 02:06:12;;;;;;;0.60;0.60;;;3.40;99.90;;;;;;5054091;28;20209;-67
2023/04/15 02:08:38;;;;;;;0.60;0.60;;;3.40;99.90;;;;;;5053560;28;20212;-67
2023/04/15 02:11:04;;;;;;;0.60;0.60;;;3.40;99.90;;;;;;5055238;28;20193;-67
2023/04/15 02:13:29;;;;;;;0.68;0.68;;;3.40;99.90;;;;;;5054738;28;20277;-67
2023/04/15 02:15:56;;;;;;;0.63;0.63;;;3.40;99.90;;;;;;5055023;28;20205;-67
2023/04/15 02:18:22;;;;;;;0.70;0.70;;;3.40;99.90;;;;;;5053881;28;20205;-68
2023/04/15 02:20:49;;;;;;;0.60;0.60;;;3.40;99.90;;;;;;5036301;28;20198;-66
2023/04/15 02:23:15;;;;;;;0.50;0.50;;;3.40;99.90;;;;;;5043170;28;20608;-67
2023/04/15 02:25:41;;;;;;;0.60;0.60;;;3.40;99.90;;;;;;5054478;28;20276;-67
2023/04/15 02:28:07;;;;;;;0.50;0.50;;;3.40;99.90;;;;;;5055150;28;20594;-67
2023/04/15 02:30:33;;;;;;;0.80;0.80;;;3.50;99.90;;;;;;5054786;28;20273;-67
2023/04/15 02:33:00;;;;;;;0.70;0.70;;;3.40;99.90;;;;;;5054718;28;20690;-67
2023/04/15 02:35:25;;;;;;;0.70;0.70;;;3.40;99.90;;;;;;5054170;28;20284;-67
2023/04/15 02:37:51;;;;;;;0.60;0.60;;;3.40;99.90;;;;;;5054031;28;20240;-67
2023/04/15 02:40:17;;;;;;;0.60;0.60;;;3.40;99.90;;;;;;5054799;28;20186;-67
2023/04/15 02:42:43;;;;;;;0.70;0.70;;;3.40;99.90;;;;;;5054497;28;20236;-67
2023/04/15 02:45:10;;;;;;;1.75;1.35;;;3.40;99.90;;;;;;5053360;28;20221;-67
2023/04/15 02:47:39;;;;;;;0.70;0.70;;;3.40;99.90;;;;;;5054359;28;20702;-67
2023/04/15 02:50:07;;;;;;;2.15;1.95;;;3.40;99.90;;;;;;5054187;28;20197;-67
2023/04/15 02:52:33;;;;;;;0.60;0.60;;;3.40;99.90;;;;;;5054251;28;20186;-67
2023/04/15 02:55:01;;;;;;;0.70;0.70;;;3.40;99.90;;;;;;5054532;28;20641;-67
2023/04/15 02:57:28;;;;;;;0.55;0.55;;;3.40;99.90;;;;;;5054301;28;20185;-67
2023/04/15 02:59:54;;;;;;;1.33;1.23;;;3.40;99.90;;;;;;5054498;28;20182;-67
2023/04/15 03:02:20;;;;;;;0.57;0.57;;;3.40;99.90;;;;;;5043124;28;20268;-68
2023/04/15 03:04:46;;;;;;;0.50;0.50;;;3.40;99.90;;;;;;5065340;28;20224;-67
2023/04/15 03:07:12;;;;;;;0.60;0.60;;;3.40;99.90;;;;;;5074194;28;20272;-67
2023/04/15 03:09:40;;;;;;;0.70;0.70;;;3.30;99.90;;;;;;5037844;28;20216;-67
2023/04/15 03:12:06;;;;;;;0.60;0.60;;;3.30;99.90;;;;;;5054226;28;20194;-67
2023/04/15 03:14:31;;;;;;;0.77;0.77;;;3.30;99.90;;;;;;5056484;28;20674;-67
2023/04/15 03:16:58;;;;;;;0.70;0.70;;;3.30;99.90;;;;;;5074006;28;20284;-67
2023/04/15 03:19:24;;;;;;;0.55;0.55;;;3.30;99.90;;;;;;5055919;28;20200;-67
2023/04/15 03:21:51;;;;;;;0.80;0.80;;;3.30;99.90;;;;;;5073612;28;20238;-67
2023/04/15 03:24:17;;;;;;;0.70;0.70;;;3.30;99.90;;;;;;5039784;28;20248;-67
2023/04/15 03:26:42;;;;;;;0.50;0.50;;;3.30;99.90;;;;;;5053547;28;20277;-67
2023/04/15 03:29:08;;;;;;;0.60;0.60;;;3.30;99.90;;;;;;5053742;28;20648;-67
2023/04/15 03:31:34;;;;;;;0.60;0.60;;;3.40;99.90;;;;;;5053602;28;20198;-67
2023/04/15 03:34:00;;;;;;;0.60;0.60;;;3.30;99.90;;;;;;5053872;28;20660;-67
2023/04/15 03:36:28;;;;;;;0.60;0.60;;;3.30;99.90;;;;;;5053609;28;20205;-67
2023/04/15 03:38:54;;;;;;;0.70;0.70;;;3.30;99.90;;;;;;5053723;28;20289;-67
2023/04/15 03:41:20;;;;;;;0.60;0.60;;;3.30;99.90;;;;;;5053636;28;20650;-68
2023/04/15 03:43:46;;;;;;;0.60;0.60;;;3.30;99.90;;;;;;5035663;28;20221;-67
2023/04/15 03:46:12;;;;;;;0.60;0.60;;;3.30;99.90;;;;;;5064773;28;20272;-67
2023/04/15 03:48:37;;;;;;;1.30;0.93;;;3.30;99.90;;;;;;5073199;28;20207;-67
2023/04/15 03:51:03;;;;;;;2.17;2.00;;;3.30;99.90;;;;;;5073534;28;20200;-65
2023/04/15 03:53:29;;;;;;;0.60;0.60;;;3.30;99.90;;;;;;5072925;28;20251;-67
2023/04/15 03:55:55;;;;;;;0.60;0.60;;;3.30;99.90;;;;;;5073244;28;20205;-67
2023/04/15 03:58:21;;;;;;;1.00;1.00;;;3.30;99.90;;;;;;5055294;28;20192;-67
2023/04/15 04:00:50;;;;;;;0.60;0.60;;;3.30;99.90;;;;;;5056408;28;20270;-66
2023/04/15 04:03:16;;;;;;;0.60;0.60;;;3.30;99.90;;;;;;5073323;28;20231;-66
2023/04/15 04:05:44;;;;;;;0.50;0.50;;;3.30;99.90;;;;;;5072439;28;20225;-67
2023/04/15 04:08:12;;;;;;;0.60;0.60;;;3.30;99.90;;;;;;5073570;28;20280;-66
2023/04/15 04:10:38;;;;;;;0.70;0.70;;;3.30;99.90;;;;;;5073959;28;20243;-67
2023/04/15 04:13:04;;;;;;;0.60;0.60;;;3.30;99.90;;;;;;5073377;28;20215;-67
2023/04/15 04:15:30;;;;;;;0.60;0.60;;;3.40;99.90;;;;;;5073086;28;20671;-66
2023/04/15 04:17:58;;;;;;;0.80;0.80;;;3.40;99.90;;;;;;5037659;28;20225;-66
2023/04/15 04:20:24;;;;;;;0.65;0.65;;;3.30;99.90;;;;;;5072887;28;20242;-67
2023/04/15 04:22:55;;;;;;;0.60;0.60;;;3.30;99.90;;;;;;5072882;28;20246;-67
2023/04/15 04:25:21;;;;;;;0.50;0.50;;;3.30;99.90;;;;;;5054571;28;20200;-67
2023/04/15 04:27:47;;;;;;;0.60;0.60;;;3.40;99.90;;;;;;5073136;28;20199;-67
2023/04/15 04:30:12;;;;;;;0.60;0.60;;;3.30;99.90;;;;;;5073249;28;20192;-67
2023/04/15 04:32:38;;;;;;;0.70;0.70;;;3.40;99.90;;;;;;5054609;28;20201;-67
2023/04/15 04:35:06;;;;;;;0.60;0.60;;;3.40;99.90;;;;;;5072697;28;20616;-67
2023/04/15 04:37:37;;;;;;;0.60;0.60;;;3.40;99.90;;;;;;5065861;28;20227;-67
2023/04/15 04:40:03;;;;;;;0.60;0.60;;;3.40;99.90;;;;;;5053262;28;20196;-67
2023/04/15 04:42:30;;;;;;;0.60;0.60;;;3.40;99.90;;;;;;5064197;28;20311;-66
2023/04/15 04:44:56;;;;;;;0.65;0.65;;;3.40;99.90;;;;;;5073573;28;20193;-67
2023/04/15 04:47:22;;;;;;;0.63;0.63;;;3.40;99.90;;;;;;5054610;28;20193;-67
2023/04/15 04:49:47;;;;;;;0.60;0.60;;;3.40;99.90;;;;;;5054891;28;20759;-67
2023/04/15 04:52:13;;;;;;;0.70;0.70;;;3.40;99.90;;;;;;5072916;28;20200;-67
2023/04/15 04:54:42;;;;;;;0.55;0.55;;;3.40;99.90;;;;;;5072694;28;20283;-67
2023/04/15 04:57:08;;;;;;;0.50;0.50;;;3.40;99.90;;;;;;5054915;28;20209;-67
2023/04/15 04:59:33;;;;;;;0.90;0.90;;;3.40;99.90;;;;;;5055632;28;20196;-67
2023/04/15 05:02:02;;;;;;;0.70;0.70;;;3.40;99.90;;;;;;5076431;28;20617;-67
2023/04/15 05:04:33;;;;;;;0.70;0.70;;;3.50;99.90;;;;;;5051123;28;20222;-67
2023/04/15 05:07:05;;;;;;;0.88;0.88;;;3.50;99.90;;;;;;5035282;28;20206;-67
2023/04/15 05:09:35;;;;;;;0.80;0.80;;;3.50;99.90;;;;;;5052062;28;20194;-67
2023/04/15 05:12:03;;;;;;;0.70;0.70;;;3.50;99.90;;;;;;5036581;28;20683;-67
2023/04/15 05:14:34;;;;;;;0.60;0.60;;;3.60;99.90;;;;;;5039701;28;20194;-66
2023/04/15 05:17:00;;;;;;;0.60;0.60;;;3.60;99.90;;;;;;5056468;28;20209;-67
2023/04/15 05:19:38;;;;;;;0.60;0.60;;;3.60;99.90;;;;;;5056173;28;20190;-67
2023/04/15 05:22:13;;;;;;;0.57;0.57;;;3.60;99.90;;;;;;5057720;28;20741;-67
2023/04/15 05:24:41;;;;;;;0.60;0.60;;;3.60;99.90;;;;;;5056481;28;20636;-66
2023/04/15 05:27:09;;;;;;;0.70;0.70;;;3.60;99.90;;;;;;5056322;28;20205;-67
2023/04/15 05:29:38;;;;;;;0.50;0.50;;;3.60;99.90;;;;;;5055843;28;20277;-67
2023/04/15 05:32:04;;;;;;;0.60;0.60;;;3.60;99.90;;;;;;5055819;28;20243;-67
2023/04/15 05:34:30;;;;;;;0.60;0.60;;;3.60;99.90;;;;;;5056015;28;20186;-67
2023/04/15 05:36:56;;;;;;;0.90;0.90;;;3.70;99.90;;;;;;5055977;28;20202;-67
2023/04/15 05:39:21;;;;;;;0.50;0.50;;;3.70;99.90;;;;;;5055466;28;20201;-67
2023/04/15 05:41:47;;;;;;;0.70;0.70;;;3.70;99.90;;;;;;5055700;28;20251;-67
2023/04/15 05:44:16;;;;;;;0.70;0.70;;;3.60;99.90;;;;;;5056209;28;20186;-67
2023/04/15 05:46:42;;;;;;;0.60;0.60;;;3.70;99.90;;;;;;5054348;28;20255;-67
2023/04/15 05:49:08;;;;;;;0.70;0.70;;;3.70;99.90;;;;;;5055722;28;20205;-66
2023/04/15 05:51:36;;;;;;;0.88;0.88;;;3.70;99.90;;;;;;5055804;28;20189;-67
2023/04/15 05:54:01;;;;;;;0.90;0.90;;;3.70;99.90;;;;;;5055969;28;20197;-67
2023/04/15 05:56:33;;;;;;;0.70;0.70;;;3.70;99.90;;;;;;5054098;28;20613;-68
2023/04/15 05:59:08;;;;;;;0.90;0.90;;;3.70;99.90;;;;;;5055210;28;20706;-68
2023/04/15 06:01:34;;;;;;;0.70;0.70;;;3.70;99.90;;;;;;5054377;28;20563;-67
2023/04/15 06:04:00;;;;;;;0.52;0.52;;;3.70;99.90;;;;;;5058840;28;20227;-67
2023/04/15 06:06:26;;;;;;;0.60;0.60;;;3.70;99.90;;;;;;5058086;28;20272;-68
2023/04/15 06:08:52;;;;;;;0.70;0.70;;;3.70;99.90;;;;;;5076254;28;20239;-68
2023/04/15 06:11:26;;;;;;;1.00;0.98;;;3.70;99.90;;;;;;5056685;28;20193;-69
2023/04/15 06:13:51;;;;;;;0.70;0.70;;;3.80;99.90;;;;;;5075837;28;20269;-68
2023/04/15 06:16:30;;;;;;;0.88;0.88;;;3.80;99.90;;;;;;5075689;28;20692;-68
2023/04/15 06:18:55;;;;;;;0.70;0.70;;;3.80;99.90;;;;;;5076133;28;20196;-72
2023/04/15 06:21:21;;;;;;;0.70;0.70;;;3.80;99.90;;;;;;5075224;28;20247;-71
2023/04/15 06:23:47;;;;;;;3.60;1.35;;;3.80;99.90;;;;;;5075643;28;20199;-73
2023/04/15 06:26:15;;;;;;;0.95;0.95;;;3.80;99.90;;;;;;5075864;28;20666;-72
2023/04/15 06:29:05;;;;;;;0.90;0.90;;;3.80;99.90;;;;;;5075738;28;20212;-73
2023/04/15 06:31:34;;;;;;;0.60;0.60;;;3.80;99.90;;;;;;5055614;28;20209;-71
2023/04/15 06:34:00;;;;;;;0.70;0.70;;;3.80;99.90;;;;;;5059289;28;20671;-72
2023/04/15 06:36:26;;;;;;;0.70;0.70;;;3.80;99.90;;;;;;5075345;28;20556;-70
2023/04/15 06:38:52;;;;;;;0.80;0.80;;;3.80;99.90;;;;;;5075425;28;20185;-73
2023/04/15 06:41:18;;;;;;;0.65;0.65;;;3.80;99.90;;;;;;5056978;28;20211;-72
2023/04/15 06:43:44;;;;;;;0.63;0.63;;;3.80;99.90;;;;;;5076088;28;20189;-71
2023/04/15 06:46:10;;;;;;;0.60;0.60;;;3.70;99.90;;;;;;5075348;28;20276;-72
2023/04/15 06:48:40;;;;;;;0.60;0.60;;;3.80;99.90;;;;;;5075289;28;20698;-73
2023/04/15 06:51:06;;;;;;;0.55;0.55;;;3.80;99.90;;;;;;5057648;28;20228;-72
2023/04/15 06:53:32;;;;;;;0.60;0.60;;;3.80;99.90;;;;;;5056901;28;20204;-71
2023/04/15 06:55:58;;;;;;;0.80;0.80;;;3.80;99.90;;;;;;5075261;28;20283;-71
2023/04/15 06:58:29;;;;;;;2.50;1.77;;;3.80;99.90;;;;;;5057023;28;20204;-71
2023/04/15 07:00:55;;;;;;;0.50;0.50;;;3.80;99.90;;;;;;5075158;28;20189;-71
2023/04/15 07:03:34;;;;;;;;;;;;;;;;;;;;;
2023/04/15 07:06:05;;;;;;;4.05;3.17;;;3.80;99.90;;;;;;5054808;28;20612;-71
2023/04/15 07:08:32;;;;;;;1.10;1.05;;;3.90;99.90;;;;;;5070258;28;20246;-72
2023/04/15 07:11:00;;;;;;;2.00;1.35;;;3.90;99.90;;;;;;5055937;28;20262;-72
2023/04/15 07:13:30;;;;;;;0.60;0.60;;;3.90;99.90;;;;;;5074664;28;20199;-71
2023/04/15 07:16:02;;;;;;;1.25;1.15;;;3.90;99.90;;;;;;5075235;28;20205;-72
2023/04/15 07:18:28;;;;;;;0.68;0.68;;;3.90;99.90;;;;;;5056472;28;20204;-71
2023/04/15 07:20:57;;;;;;;0.80;0.80;;;4.00;99.90;;;;;;5074470;28;20185;-72
2023/04/15 07:23:26;;;;;;;0.60;0.60;;;4.00;99.90;;;;;;5055736;28;20205;-72
2023/04/15 07:25:52;;;;;;;0.70;0.70;;;4.10;99.90;;;;;;5074418;28;20554;-71
2023/04/15 07:28:18;;;;;;;0.68;0.68;;;4.10;99.90;;;;;;5056317;28;20201;-72
2023/04/15 07:30:46;;;;;;;0.80;0.80;;;4.10;99.90;;;;;;5055980;28;20334;-72
2023/04/15 07:33:14;;;;;;;0.90;0.90;;;4.10;99.90;;;;;;5074806;28;20193;-72
2023/04/15 07:35:40;;;;;;;0.90;0.90;;;4.20;99.90;;;;;;5056302;28;20205;-71
2023/04/15 07:38:22;;;;;;;0.60;0.60;;;4.20;99.90;;;;;;5075362;28;20193;-73
2023/04/15 07:41:11;;;;;;;10.63;2.90;;;4.20;99.90;;;;;;5073947;28;20192;-72
2023/04/15 07:43:58;;;;;;;0.90;0.90;;;4.30;99.90;;;;;;5067906;28;20254;-72
2023/04/15 07:46:29;;;;;;;0.60;0.60;;;4.30;99.90;;;;;;5055567;28;20208;-71
2023/04/15 07:48:58;;;;;;;0.60;0.60;;;4.40;99.90;;;;;;5056466;28;20346;-71
2023/04/15 07:51:24;;;;;;;0.60;0.60;;;4.50;99.90;;;;;;5073604;28;20224;-71
2023/04/15 07:54:14;;;;;;;1.13;1.13;;;4.50;99.90;;;;;;5073620;28;20189;-71
2023/04/15 07:56:40;;;;;;;0.60;0.60;;;4.60;99.90;;;;;;5073148;28;20232;-71
2023/04/15 07:59:12;;;;;;;0.60;0.60;;;4.60;99.90;;;;;;5073869;28;20238;-72
2023/04/15 08:01:41;;;;;;;0.60;0.60;;;4.60;99.90;;;;;;5055348;28;20728;-72
2023/04/15 08:04:07;;;;;;;0.60;0.60;;;4.70;99.90;;;;;;5073194;28;20237;-72
2023/04/15 08:06:32;;;;;;;1.23;1.20;;;4.70;99.90;;;;;;5073774;28;20679;-72
2023/04/15 08:09:01;;;;;;;0.88;0.88;;;4.70;99.90;;;;;;5073605;28;20690;-74
2023/04/15 08:11:27;;;;;;;1.83;1.13;;;4.70;99.90;;;;;;5055525;28;20208;-72
2023/04/15 08:13:53;;;;;;;0.60;0.60;;;4.80;99.90;;;;;;5073385;28;20560;-72
2023/04/15 08:16:26;;;;;;;0.60;0.60;;;4.80;99.90;;;;;;5073145;28;20236;-71
2023/04/15 08:18:54;;;;;;;1.23;1.13;;;4.80;99.90;;;;;;5073398;28;20659;-72
2023/04/15 08:21:21;;;;;;;0.70;0.70;;;4.90;99.90;;;;;;5073055;28;20188;-71
2023/04/15 08:23:49;;;;;;;0.70;0.70;;;4.90;99.90;;;;;;5054304;28;20288;-72
2023/04/15 08:26:16;;;;;;;0.60;0.60;;;4.90;99.90;;;;;;5072712;28;20672;-73
2023/04/15 08:28:43;;;;;;;0.60;0.60;;;4.90;99.90;;;;;;5073114;28;20599;-71
2023/04/15 08:31:15;;;;;;;0.70;0.70;;;4.90;99.90;;;;;;5073544;28;20544;-72
2023/04/15 08:33:41;;;;;;;0.70;0.70;;;4.90;99.90;;;;;;5072526;28;20196;-71
2023/04/15 08:36:07;;;;;;;0.77;0.77;;;4.90;99.90;;;;;;5073174;28;20238;-72
2023/04/15 08:38:33;;;;;;;0.70;0.70;;;5.00;99.90;;;;;;5055116;28;20675;-71
2023/04/15 08:41:23;;;;;;;1.08;1.02;;;5.00;99.90;;;;;;5055095;28;20231;-72
2023/04/15 08:44:02;;;;;;;0.70;0.70;;;5.10;99.90;;;;;;5055363;28;20586;-71
2023/04/15 08:46:30;;;;;;;0.60;0.60;;;5.20;99.90;;;;;;5072761;28;20203;-71
2023/04/15 08:49:00;;;;;;;0.80;0.80;;;5.20;99.90;;;;;;5073262;28;20559;-73
2023/04/15 08:51:27;;;;;;;0.60;0.60;;;5.30;99.90;;;;;;5073254;28;20208;-71
2023/04/15 08:53:53;;;;;;;0.82;0.82;;;5.40;99.90;;;;;;5072724;28;20283;-71
2023/04/15 08:56:27;;;;;;;0.70;0.70;;;5.40;99.90;;;;;;5072854;28;20212;-71
2023/04/15 08:58:54;;;;;;;0.60;0.60;;;5.50;99.90;;;;;;5055070;28;20216;-72
2023/04/15 09:01:20;;;;;;;1.08;1.08;;;5.50;99.90;;;;;;5072762;28;20204;-71
2023/04/15 09:03:49;;;;;;;0.70;0.70;;;5.60;99.90;;;;;;5072538;28;20227;-71
2023/04/15 09:06:16;;;;;;;1.20;1.10;;;5.60;99.90;;;;;;5072835;28;20228;-72
2023/04/15 09:08:42;;;;;;;1.88;1.55;;;5.70;99.90;;;;;;5072439;28;20651;-71
2023/04/15 09:11:08;;;;;;;2.38;1.98;;;5.70;99.90;;;;;;5055322;28;20278;-72
2023/04/15 09:13:37;;;;;;;1.05;1.05;;;5.70;99.90;;;;;;5072343;28;20193;-71
2023/04/15 09:16:05;;;;;;;4.32;2.90;;;5.70;99.90;;;;;;5054888;28;20323;-72
2023/04/15 09:18:34;;;;;;;0.90;0.90;;;5.80;99.90;;;;;;5054464;28;20652;-73
2023/04/15 09:21:10;;;;;;;0.80;0.80;;;5.80;99.90;;;;;;5072839;28;20181;-67
2023/04/15 09:23:53;;;;;;;2.10;1.67;;;5.80;99.90;;;;;;5054085;28;20263;-67
2023/04/15 09:26:19;;;;;;;0.55;0.55;;;5.90;99.90;;;;;;5072897;28;20666;-68
2023/04/15 09:28:49;;;;;;;0.70;0.70;;;6.00;99.90;;;;;;5054563;28;20211;-66
2023/04/15 09:31:30;;;;;;;1.33;1.23;;;6.00;99.90;;;;;;5054819;28;20570;-68
2023/04/15 09:33:56;;;;;;;0.70;0.70;;;6.10;99.90;;;;;;5072342;28;20195;-68
2023/04/15 09:36:21;;;;;;;0.60;0.60;;;6.20;99.90;;;;;;5072454;28;20209;-67
2023/04/15 09:38:58;;;;;;;0.50;0.50;;;6.30;99.90;;;;;;5072923;28;20189;-68
2023/04/15 09:41:27;;;;;;;0.60;0.60;;;6.30;99.90;;;;;;5073040;28;20651;-68
2023/04/15 09:43:53;;;;;;;0.60;0.60;;;6.40;99.90;;;;;;5055013;28;20196;-67
2023/04/15 09:46:22;;;;;;;0.60;0.60;;;6.30;99.90;;;;;;5074555;28;20197;-69
2023/04/15 09:49:08;;;;;;;0.60;0.60;;;6.30;99.90;;;;;;5059223;28;20660;-68
2023/04/15 09:51:34;;;;;;;0.70;0.70;;;6.40;99.90;;;;;;5058548;28;20603;-67
2023/04/15 09:54:07;;;;;;;0.60;0.60;;;6.40;99.90;;;;;;5075575;28;20193;-68
2023/04/15 09:56:40;;;;;;;0.50;0.50;;;6.40;99.90;;;;;;5052937;28;20209;-68
2023/04/15 09:59:07;;;;;;;0.68;0.68;;;6.40;99.90;;;;;;5055818;28;20190;-68
2023/04/15 10:01:39;;;;;;;0.55;0.55;;;6.50;99.90;;;;;;5037635;28;20197;-68
2023/04/15 10:04:05;;;;;;;0.60;0.60;;;6.50;99.90;;;;;;5039579;28;20217;-68
2023/04/15 10:06:32;;;;;;;0.60;0.60;;;6.50;99.90;;;;;;5037571;28;20220;-67
2023/04/15 10:08:58;;;;;;;0.68;0.68;;;6.40;99.90;;;;;;5055590;28;20259;-68
2023/04/15 10:11:26;;;;;;;0.60;0.60;;;6.40;99.90;;;;;;5054117;28;20197;-68
2023/04/15 10:13:53;;;;;;;0.82;0.82;;;6.50;99.90;;;;;;5037786;28;20197;-68
2023/04/15 10:16:23;;;;;;;4.82;1.42;;;6.40;99.90;;;;;;5055239;28;20691;-69
2023/04/15 10:18:55;;;;;;;0.60;0.60;;;6.40;99.90;;;;;;5075257;28;20185;-68
2023/04/15 10:21:24;;;;;;;0.60;0.60;;;6.30;99.90;;;;;;5075544;28;20208;-68
2023/04/15 10:23:51;;;;;;;0.60;0.60;;;6.30;99.90;;;;;;5057656;28;20193;-68
2023/04/15 10:26:17;;;;;;;0.50;0.50;;;6.30;99.90;;;;;;5075318;28;20208;-68
2023/04/15 10:28:43;;;;;;;0.50;0.50;;;6.30;99.90;;;;;;5075141;28;20268;-67
2023/04/15 10:31:28;;;;;;;0.40;0.40;;;6.40;99.90;;;;;;5074981;28;20685;-68
2023/04/15 10:34:05;;;;;;;0.60;0.60;;;6.40;99.90;;;;;;5075720;28;20694;-68
2023/04/15 10:36:32;;;;;;;0.60;0.60;;;6.50;99.90;;;;;;5075089;28;20262;-68
2023/04/15 10:39:00;;;;;;;0.50;0.50;;;6.70;99.90;;;;;;5075153;28;20209;-73
2023/04/15 10:41:33;;;;;;;0.60;0.60;;;6.90;99.90;;;;;;5074685;28;20254;-73
2023/04/15 10:44:03;;;;;;;0.60;0.60;;;7.10;99.90;;;;;;5057162;28;20566;-73
2023/04/15 10:46:46;;;;;;;0.60;0.60;;;7.30;99.90;;;;;;5074990;28;20223;-72
2023/04/15 10:49:25;;;;;;;0.60;0.60;;;7.50;99.90;;;;;;5074948;28;20199;-72
2023/04/15 10:51:58;;;;;;;0.60;0.60;;;7.70;99.90;;;;;;5074876;28;20193;-75
2023/04/15 10:54:26;;;;;;;0.70;0.70;;;7.90;99.90;;;;;;5074314;28;20724;-73
2023/04/15 10:57:05;;;;;;;0.63;0.63;;;8.00;99.90;;;;;;5074520;28;20204;-74
2023/04/15 10:59:51;;;;;;;0.55;0.55;;;8.10;99.90;;;;;;5075761;28;20568;-75
2023/04/15 11:03:05;;;;;;;0.50;0.50;;;8.40;99.90;;;;;;5060092;28;20205;-73
2023/04/15 11:06:26;;;;;;;0.40;0.40;;;8.70;99.90;;;;;;5027198;28;20680;-76
2023/04/15 11:09:08;;;;;;;0.60;0.60;;;8.90;99.90;;;;;;4993791;28;20211;-75
2023/04/15 11:12:08;;;;;;;0.60;0.60;;;9.30;99.90;;;;;;4993451;28;20231;-74
2023/04/15 11:14:42;;;;;;;0.50;0.50;;;9.60;99.90;;;;;;4993136;28;20195;-76
2023/04/15 11:17:08;;;;;;;0.70;0.70;;;9.70;99.90;;;;;;4976200;28;20227;-76
2023/04/15 11:20:10;;;;;;;0.52;0.52;;;9.90;99.90;;;;;;4993209;28;20203;-75
2023/04/15 11:22:53;;;;;;;0.50;0.50;;;10.10;99.90;;;;;;4979693;28;20211;-76
2023/04/15 11:25:45;;;;;;;0.93;0.93;;;10.30;99.90;;;;;;4976878;28;20286;-74
2023/04/15 11:28:11;;;;;;;0.50;0.50;;;10.40;99.90;;;;;;4992453;28;20195;-75
2023/04/15 11:30:43;;;;;;;0.50;0.50;;;10.40;99.90;;;;;;4992908;28;20215;-68
2023/04/15 11:33:12;;;;;;;0.80;0.80;;;10.50;99.90;;;;;;4995115;28;20198;-69
2023/04/15 11:35:40;;;;;;;0.57;0.57;;;10.60;99.90;;;;;;4962051;28;20231;-69
2023/04/15 11:38:41;;;;;;;0.50;0.50;;;10.70;99.90;;;;;;4975131;28;20200;-68
2023/04/15 11:41:07;;;;;;;1.17;1.13;;;10.70;99.90;;;;;;4963711;28;20266;-68
2023/04/15 11:43:39;;;;;;;0.60;0.60;;;10.80;99.90;;;;;;5022795;28;20733;-70
2023/04/15 11:46:53;;;;;;;0.65;0.65;;;10.80;99.90;;;;;;5035102;28;20194;-68
2023/04/15 11:49:33;;;;;;;0.50;0.50;;;11.00;99.90;;;;;;4975914;28;20713;-69
2023/04/15 11:52:00;;;;;;;0.50;0.50;;;11.20;99.90;;;;;;4992337;28;20218;-68
2023/04/15 11:54:25;;;;;;;0.40;0.40;;;11.30;99.90;;;;;;4991901;28;20203;-69
2023/04/15 11:56:53;;;;;;;0.50;0.50;;;11.60;99.90;;;;;;4991980;28;20354;-68
2023/04/15 11:59:19;;;;;;;0.40;0.40;;;11.80;99.90;;;;;;4991461;28;20211;-69
2023/04/15 12:01:46;;;;;;;0.65;0.65;;;12.00;99.90;;;;;;4992014;28;20248;-69
2023/04/15 12:04:14;;;;;;;0.47;0.47;;;12.30;99.90;;;;;;4993590;28;20733;-69
2023/04/15 12:06:40;;;;;;;0.77;0.70;;;12.50;99.90;;;;;;4991723;28;20215;-69
2023/04/15 12:09:06;;;;;;;0.55;0.55;;;12.70;99.90;;;;;;4974746;28;20714;-69
2023/04/15 12:11:34;;;;;;;0.50;0.50;;;12.80;99.90;;;;;;4991391;28;20241;-69
2023/04/15 12:14:27;;;;;;;15.10;1.08;;;12.90;99.90;;;;;;4991931;28;20686;-70
2023/04/15 12:17:00;;;;;;;0.50;0.50;;;13.10;99.90;;;;;;4985423;28;20227;-69
2023/04/15 12:19:29;;;;;;;0.40;0.40;;;13.50;99.90;;;;;;4991498;28;20235;-70
2023/04/15 12:22:09;;;;;;;0.50;0.50;;;13.60;99.90;;;;;;4991809;28;20562;-69
2023/04/15 12:24:36;;;;;;;0.50;0.50;;;13.60;99.90;;;;;;4975257;28;20207;-69
2023/04/15 12:27:07;;;;;;;0.40;0.40;;;13.80;99.90;;;;;;5050873;28;20194;-70
2023/04/15 12:29:38;;;;;;;0.50;0.50;;;14.30;99.90;;;;;;5066190;28;20580;-69
2023/04/15 12:32:15;;;;;;;0.70;0.70;;;14.70;99.90;;;;;;5052858;28;20687;-69
2023/04/15 12:34:44;;;;;;;0.40;0.40;;;14.80;99.90;;;;;;5053003;28;20689;-70
2023/04/15 12:37:14;;;;;;;0.30;0.30;;;14.90;99.90;;;;;;5052947;28;20206;-69
2023/04/15 12:39:42;;;;;;;0.40;0.40;;;15.10;99.90;;;;;;5052432;28;20304;-70
2023/04/15 12:42:09;;;;;;;0.47;0.47;;;15.50;99.90;;;;;;5051036;28;20609;-70
2023/04/15 12:44:38;;;;;;;0.50;0.50;;;15.60;99.90;;;;;;5067795;28;20200;-70
2023/04/15 12:47:04;;;;;;;0.30;0.30;;;15.80;99.90;;;;;;5052456;28;20201;-71
2023/04/15 12:49:34;;;;;;;0.40;0.40;;;15.90;99.90;;;;;;5050866;28;20201;-69
2023/04/15 12:52:02;;;;;;;0.50;0.50;;;16.40;99.90;;;;;;5052649;28;20197;-70
2023/04/15 12:54:30;;;;;;;0.30;0.30;;;16.20;99.90;;;;;;5052609;28;20330;-70
2023/04/15 12:56:57;;;;;;;0.30;0.30;;;16.20;99.90;;;;;;5051088;28;20680;-70
2023/04/15 12:59:23;;;;;;;0.38;0.38;;;16.20;99.90;;;;;;5051683;28;20558;-70
2023/04/15 13:01:49;;;;;;;0.40;0.40;;;16.20;99.90;;;;;;5052636;28;20189;-70
2023/04/15 13:04:15;;;;;;;0.65;0.65;;;16.30;99.90;;;;;;5048034;28;20197;-70
2023/04/15 13:06:45;;;;;;;0.50;0.50;;;16.10;99.90;;;;;;5052548;28;20664;-71
2023/04/15 13:09:13;;;;;;;0.50;0.50;;;16.20;99.90;;;;;;5067813;28;20276;-69